Decoded Metar for PHHI (WHEELER AFB. in HI, USA OAHU ISL.) (IATA:N/A) | Meteo·Mobile Aviation Weather
aviador You're here:

PHHI Decoded Metar

WHEELER AFB. in HI, USA OAHU ISL.
Report Time2019-06-26 18:16:00
UTC Time2019-06-26 18:46:28
Flight Rules mvfr MVFR
Wind170° at 04 kt
W.Decomp.*RWY 24: 0.6 kt HW 4 kt LCW
Visibility9999 m
Phenomena:N/A
Clouds:Broken 015 Hf
Ceiling1,500 ft
Temp21°C (ISA +8)
Dew Point21°C (100% RH)
QNH1012 hPa
Density Alt2,096 ft
Elevation837 ft
Report Wrong Elevation
Raw Report
PHHI 261816Z AUTO 17004KT 10SM BKN015 21/21 A2988 RMK AO2 SLP111
$=

Extra information for PHHI:More info

Metar Taf Metar & Taf Last 4 Metars F.Rules Stats Wind Profile Meteogram Temp Stats Airport Information Weather charts Add Link Nearby VenuesMetar ALERT Operation Metar Decoded Social comments